This is the latest recevied weather packets stored in our database for station/object KI4FRU. If no packets are shown the sender has not sent any weather packets the latest 10 day(s).
| Time | Temp. | Humidity | Pressure | Rain* | Wind** | Luminosity | Snow |
|---|---|---|---|---|---|---|---|
| 1777762581 | 16.67° C | 49% | 1051.1 hPa | 0 mm | - | 29 W/m² | - |
| 1777762279 | 16.67° C | 50% | 1051.1 hPa | 0 mm | - | 33 W/m² | - |
| 1777761975 | 17.22° C | 50% | 1051 hPa | 0 mm | - | 48 W/m² | - |
| 1777761672 | 17.22° C | 51% | 1051 hPa | 0 mm | - | 53 W/m² | - |
| 1777761370 | 17.78° C | 55% | 1050.8 hPa | 0 mm | - | 42 W/m² | - |
| 1777761068 | 17.78° C | 54% | 1050.8 hPa | 0 mm | - | 40 W/m² | - |
| 1777760765 | 18.33° C | 55% | 1050.6 hPa | 0 mm | - | 56 W/m² | - |
| 1777760461 | 18.33° C | 55% | 1050.7 hPa | 0 mm | - | 82 W/m² | - |
| 1777760157 | 18.33° C | 57% | 1050.3 hPa | 0 mm | - | 77 W/m² | - |
| 1777759854 | 17.78° C | 52% | 1050.6 hPa | 0 mm | - | 92 W/m² | - |
| 1777759550 | 17.78° C | 53% | 1050.6 hPa | 0 mm | - | 83 W/m² | - |
| 1777759247 | 18.33° C | 52% | 1050.4 hPa | 0 mm | - | 89 W/m² | - |
| 1777758944 | 18.89° C | 51% | 1050.2 hPa | 0 mm | - | 86 W/m² | - |
| 1777758641 | 18.89° C | 50% | 1050.1 hPa | 0 mm | - | 86 W/m² | - |
| 1777758338 | 18.89° C | 56% | 1050 hPa | 0 mm | - | 85 W/m² | - |
| 1777758036 | 19.44° C | 50% | 1050.1 hPa | 0 mm | - | 82 W/m² | - |
| 1777757732 | 20° C | 47% | 1050 hPa | 0 mm | - | 83 W/m² | - |
| 1777757430 | 21.67° C | 46% | 1049.9 hPa | 0 mm | - | 103 W/m² | - |
| 1777757129 | 21.11° C | 48% | 1050.2 hPa | 0 mm | - | 338 W/m² | - |
| 1777756826 | 21.67° C | 46% | 1050 hPa | 0 mm | - | 337 W/m² | - |
| 1777756521 | 22.22° C | 45% | 1050 hPa | 0 mm | - | 327 W/m² | - |
| 1777756219 | 22.22° C | 45% | 1049.9 hPa | 0 mm | - | 376 W/m² | - |
| 1777755915 | 20.56° C | 49% | 1050 hPa | 0 mm | - | 422 W/m² | - |
| 1777755613 | 20° C | 48% | 1050.2 hPa | 0 mm | - | 337 W/m² | - |
| 1777755309 | 20° C | 47% | 1050.2 hPa | 0 mm | - | 381 W/m² | - |
* Rain latest hour (hover to see other rain measurements)
** Current wind speed in m/s (hover to see current wind gust speed)